Time;durP1;ratioP1;P1;durP2;ratioP2;P2;SDS_P1;SDS_P2;PMS_P1;PMS_P2;Temp;Humidity;BMP_temperature;BMP_pressure;BME280_temperature;BME280_humidity;BME280_pressure;Samples;Min_cycle;Max_cycle;Signal;HPM_P1;HPM_P2
2021/09/01 00:02:00;;;;;;;4.73;4.17;;;;;;;18.53;50.40;95174.72;5050444;28;20685;-71
2021/09/01 00:04:27;;;;;;;5.07;3.30;;;;;;;18.38;50.53;95172.34;5036825;28;20445;-71
2021/09/01 00:06:54;;;;;;;4.10;3.60;;;;;;;18.46;50.43;95185.75;5049996;28;20295;-70
2021/09/01 00:09:21;;;;;;;4.80;4.00;;;;;;;18.48;50.31;95177.50;5047911;28;20200;-70
2021/09/01 00:11:49;;;;;;;6.53;3.77;;;;;;;18.71;50.04;95187.06;5030282;28;20204;-72
2021/09/01 00:14:16;;;;;;;6.43;4.17;;;;;;;18.58;49.86;95183.38;5044191;28;20451;-70
2021/09/01 00:16:43;;;;;;;4.30;3.73;;;;;;;18.63;49.89;95185.91;5036866;28;20827;-71
2021/09/01 00:19:10;;;;;;;6.33;3.97;;;;;;;18.57;50.35;95192.44;5039493;28;20199;-70
2021/09/01 00:21:38;;;;;;;8.07;4.10;;;;;;;18.81;49.78;95206.22;5032881;28;20576;-70
2021/09/01 00:24:06;;;;;;;4.40;3.73;;;;;;;18.68;50.22;95203.59;5049904;28;20192;-70
2021/09/01 00:26:33;;;;;;;5.00;4.00;;;;;;;18.68;49.62;95203.59;5049049;28;20443;-71
2021/09/01 00:29:00;;;;;;;3.90;3.50;;;;;;;18.66;49.30;95205.78;5042683;28;20186;-70
2021/09/01 00:31:27;;;;;;;4.90;3.30;;;;;;;18.72;49.81;95208.00;5044028;28;20192;-71
2021/09/01 00:33:54;;;;;;;4.23;3.67;;;;;;;18.79;49.30;95207.63;5049858;28;20483;-71
2021/09/01 00:36:21;;;;;;;5.80;3.70;;;;;;;18.81;49.05;95214.19;5049282;28;20220;-70
2021/09/01 00:38:49;;;;;;;5.50;3.60;;;;;;;18.57;49.61;95211.00;5050350;28;20439;-70
2021/09/01 00:41:23;;;;;;;5.07;3.40;;;;;;;18.41;49.88;95220.34;5049428;28;20196;-69
2021/09/01 00:43:54;;;;;;;5.40;3.53;;;;;;;18.46;49.45;95222.91;5036043;28;20434;-72
2021/09/01 00:46:22;;;;;;;4.97;3.27;;;;;;;18.38;49.45;95220.91;5049963;28;20530;-70
2021/09/01 00:48:53;;;;;;;4.10;3.10;;;;;;;18.32;49.84;95224.72;5033075;28;20435;-70
2021/09/01 00:51:21;;;;;;;6.47;3.43;;;;;;;18.16;50.13;95218.94;5029906;28;20197;-70
2021/09/01 00:53:50;;;;;;;4.07;3.13;;;;;;;18.10;49.62;95219.34;5044476;28;20967;-70
2021/09/01 00:56:19;;;;;;;3.40;2.87;;;;;;;18.07;49.87;95225.22;5051161;28;20474;-71
2021/09/01 00:58:48;;;;;;;3.97;3.47;;;;;;;17.99;50.06;95225.91;5051721;28;20475;-71
2021/09/01 01:01:17;;;;;;;4.90;2.93;;;;;;;17.86;50.65;95229.34;5036259;28;20447;-72
2021/09/01 01:03:52;;;;;;;3.90;2.87;;;;;;;17.86;50.77;95229.34;5050010;28;20489;-74
2021/09/01 01:06:29;;;;;;;4.87;2.73;;;;;;;17.90;50.16;95232.97;5043411;28;20461;-72
2021/09/01 01:08:56;;;;;;;3.87;3.37;;;;;;;17.79;50.65;95228.94;5042869;28;20956;-70
2021/09/01 01:11:23;;;;;;;5.63;2.97;;;;;;;18.07;50.28;95226.03;5033554;28;20451;-70
2021/09/01 01:13:52;;;;;;;3.90;3.43;;;;;;;17.97;50.18;95230.72;5049559;28;20443;-70
2021/09/01 01:16:22;;;;;;;7.33;3.87;;;;;;;17.96;49.95;95223.84;5048823;28;20904;-70
2021/09/01 01:18:51;;;;;;;5.63;3.17;;;;;;;17.84;50.32;95232.28;5041780;28;20476;-69
2021/09/01 01:21:22;;;;;;;4.53;2.90;;;;;;;17.78;50.66;95230.00;5043331;28;20447;-70
2021/09/01 01:23:54;;;;;;;4.77;2.90;;;;;;;17.95;49.51;95230.22;5049781;28;20431;-73
2021/09/01 01:26:21;;;;;;;3.13;2.73;;;;;;;17.79;50.20;95224.41;5048915;28;20442;-70
2021/09/01 01:28:57;;;;;;;3.27;2.83;;;;;;;17.81;49.19;95224.13;5049952;28;20521;-76
2021/09/01 01:31:25;;;;;;;4.33;2.70;;;;;;;17.91;49.34;95226.59;5048947;28;20476;-69
2021/09/01 01:33:52;;;;;;;2.97;2.67;;;;;;;18.08;48.82;95226.81;5049462;28;20450;-70
2021/09/01 01:36:20;;;;;;;3.80;2.60;;;;;;;17.97;49.23;95220.88;5048729;28;20474;-72
2021/09/01 01:38:47;;;;;;;4.17;2.67;;;;;;;17.91;49.54;95223.94;5035441;28;20450;-70
2021/09/01 01:41:14;;;;;;;5.13;2.50;;;;;;;18.12;49.10;95228.56;5053162;28;20449;-69
2021/09/01 01:43:45;;;;;;;3.03;2.40;;;;;;;18.11;48.66;95221.72;5053609;28;20442;-71
2021/09/01 01:46:12;;;;;;;4.13;2.60;;;;;;;17.72;49.57;95224.00;5043751;28;20435;-70
2021/09/01 01:48:39;;;;;;;3.37;2.57;;;;;;;17.90;49.32;95215.19;5047790;28;20435;-72
2021/09/01 01:51:06;;;;;;;5.60;2.50;;;;;;;18.06;49.03;95223.66;5032860;28;20435;-70
2021/09/01 01:53:33;;;;;;;3.63;2.40;;;;;;;17.90;49.04;95193.22;5045905;28;20438;-71
2021/09/01 01:56:00;;;;;;;3.60;2.73;;;;;;;18.11;48.64;95215.59;5047957;28;20467;-72
2021/09/01 01:58:26;;;;;;;3.97;2.73;;;;;;;18.17;48.87;95219.75;5044172;28;20443;-71
2021/09/01 02:00:53;;;;;;;4.87;2.87;;;;;;;18.15;48.32;95206.00;5049654;28;20454;-70
2021/09/01 02:03:20;;;;;;;4.23;2.90;;;;;;;18.14;48.94;95215.00;5034942;28;20444;-70
2021/09/01 02:05:47;;;;;;;4.20;2.37;;;;;;;18.08;48.80;95205.59;5048765;28;20514;-71
2021/09/01 02:08:14;;;;;;;3.20;2.77;;;;;;;18.20;48.79;95198.72;5040712;28;20192;-71
2021/09/01 02:10:41;;;;;;;4.20;2.50;;;;;;;18.16;49.05;95218.16;5052707;28;20588;-70
2021/09/01 02:13:08;;;;;;;3.03;2.47;;;;;;;18.22;48.71;95203.72;5038654;28;20859;-70
2021/09/01 02:15:35;;;;;;;3.23;2.63;;;;;;;18.38;48.69;95210.28;5040238;28;20475;-72
2021/09/01 02:18:03;;;;;;;3.23;2.50;;;;;;;18.38;48.64;95210.28;5046948;28;20451;-71
2021/09/01 02:20:30;;;;;;;3.13;2.50;;;;;;;18.32;48.40;95200.84;5040225;28;20435;-69
2021/09/01 02:22:57;;;;;;;3.03;2.80;;;;;;;18.28;48.78;95199.91;5052531;28;20446;-71
2021/09/01 02:25:26;;;;;;;4.80;2.43;;;;;;;18.11;49.15;95203.13;5039002;28;20656;-69
2021/09/01 02:27:55;;;;;;;4.80;2.70;;;;;;;18.24;48.88;95209.53;5039806;28;20447;-69
2021/09/01 02:30:22;;;;;;;4.43;2.73;;;;;;;18.37;48.87;95207.94;5045754;28;20189;-69
2021/09/01 02:32:50;;;;;;;3.93;2.50;;;;;;;18.37;49.10;95208.75;5032786;28;20457;-70
2021/09/01 02:35:17;;;;;;;2.70;2.50;;;;;;;18.36;49.32;95206.34;5049957;28;20435;-69
2021/09/01 02:37:44;;;;;;;3.60;2.50;;;;;;;18.40;49.46;95207.34;5052393;28;20534;-69
2021/09/01 02:40:11;;;;;;;3.87;2.80;;;;;;;18.23;49.07;95210.59;5052517;28;20454;-71
2021/09/01 02:42:38;;;;;;;3.13;2.53;;;;;;;18.27;50.06;95208.91;5043361;28;20479;-70
2021/09/01 02:45:06;;;;;;;6.93;3.13;;;;;;;18.14;49.76;95209.69;5032226;28;20431;-71
2021/09/01 02:47:33;;;;;;;4.83;2.60;;;;;;;18.04;50.11;95215.22;5038570;28;20193;-72
2021/09/01 02:50:02;;;;;;;3.93;2.70;;;;;;;18.18;49.46;95213.34;5039484;28;20829;-69
2021/09/01 02:52:30;;;;;;;5.90;2.83;;;;;;;18.23;49.61;95223.84;5032989;28;20445;-70
2021/09/01 02:54:56;;;;;;;4.93;2.87;;;;;;;18.33;49.71;95223.66;5042338;28;20435;-70
2021/09/01 02:57:24;;;;;;;3.87;2.80;;;;;;;18.25;49.74;95227.00;5045543;28;20478;-70
2021/09/01 02:59:51;;;;;;;5.30;2.97;;;;;;;18.34;49.58;95219.91;5039123;28;20863;-70
2021/09/01 03:02:18;;;;;;;9.50;3.13;;;;;;;18.30;50.10;95224.28;5036899;28;21032;-70
2021/09/01 03:04:45;;;;;;;5.60;3.10;;;;;;;18.21;50.12;95220.69;5052127;28;20860;-72
2021/09/01 03:07:12;;;;;;;3.50;2.90;;;;;;;18.24;50.14;95228.09;5051274;28;20446;-70
2021/09/01 03:09:39;;;;;;;3.50;3.10;;;;;;;18.26;49.71;95223.28;5051520;28;20447;-71
2021/09/01 03:12:06;;;;;;;3.50;3.20;;;;;;;18.33;49.80;95228.19;5051429;28;20965;-70
2021/09/01 03:14:33;;;;;;;3.67;3.30;;;;;;;18.24;49.91;95228.09;5034446;28;20497;-72
2021/09/01 03:17:00;;;;;;;5.03;3.20;;;;;;;18.21;49.93;95231.31;5033145;28;20545;-72
2021/09/01 03:19:26;;;;;;;5.37;3.20;;;;;;;18.25;49.88;95234.94;5045008;28;20581;-71
2021/09/01 03:21:54;;;;;;;4.50;3.13;;;;;;;18.24;50.08;95236.06;5050626;28;20954;-69
2021/09/01 03:24:21;;;;;;;8.23;3.43;;;;;;;18.18;50.55;95226.59;5051566;28;20443;-72
2021/09/01 03:26:48;;;;;;;4.10;3.27;;;;;;;18.23;51.70;95242.41;5050685;28;20549;-71
2021/09/01 03:29:15;;;;;;;4.20;3.50;;;;;;;18.31;51.10;95244.41;5051437;28;20982;-72
2021/09/01 03:31:42;;;;;;;6.90;3.83;;;;;;;18.18;51.41;95229.25;5050504;28;20513;-69
2021/09/01 03:34:09;;;;;;;8.77;4.20;;;;;;;18.11;52.40;95248.22;5042981;28;20832;-69
2021/09/01 03:36:36;;;;;;;7.23;4.27;;;;;;;18.04;53.27;95252.34;5031122;28;20508;-69
2021/09/01 03:39:03;;;;;;;7.87;4.00;;;;;;;17.98;53.50;95259.59;5051573;28;20189;-70
2021/09/01 03:41:30;;;;;;;7.17;3.83;;;;;;;18.03;52.88;95256.84;5038150;28;20533;-69
2021/09/01 03:43:58;;;;;;;10.37;4.97;;;;;;;17.98;53.25;95264.09;5049883;28;20444;-71
2021/09/01 03:46:24;;;;;;;9.90;5.27;;;;;;;17.91;54.05;95266.34;5050622;28;20952;-71
2021/09/01 03:48:51;;;;;;;11.07;5.13;;;;;;;17.85;53.89;95265.66;5035391;28;20493;-72
2021/09/01 03:51:18;;;;;;;8.07;4.90;;;;;;;17.66;54.81;95245.59;5038701;28;20451;-70
2021/09/01 03:53:45;;;;;;;6.27;4.17;;;;;;;17.75;54.80;95265.03;5037205;28;20439;-72
2021/09/01 03:56:12;;;;;;;6.30;4.40;;;;;;;17.58;54.96;95270.88;5050859;28;20475;-71
2021/09/01 03:58:39;;;;;;;9.50;4.90;;;;;;;17.44;56.00;95263.94;5051578;28;20454;-71
2021/09/01 04:01:06;;;;;;;7.50;5.03;;;;;;;17.48;55.86;95275.56;5036991;28;20500;-69
2021/09/01 04:03:33;;;;;;;5.50;4.60;;;;;;;17.52;55.30;95272.03;5050603;28;20447;-71
2021/09/01 04:06:02;;;;;;;9.47;4.80;;;;;;;17.66;55.12;95274.75;5050306;28;20439;-71
2021/09/01 04:08:29;;;;;;;5.60;4.37;;;;;;;17.53;55.18;95278.13;5050451;28;20453;-71
2021/09/01 04:10:56;;;;;;;11.70;5.00;;;;;;;17.34;55.74;95282.63;5036135;28;20537;-70
2021/09/01 04:13:23;;;;;;;11.20;5.10;;;;;;;17.33;55.71;95283.69;5042795;28;20432;-70
2021/09/01 04:15:50;;;;;;;9.30;4.70;;;;;;;17.36;56.07;95275.97;5030274;28;20441;-72
2021/09/01 04:18:17;;;;;;;5.57;4.30;;;;;;;17.22;56.39;95267.19;5033901;28;20948;-72
2021/09/01 04:20:44;;;;;;;7.93;5.13;;;;;;;17.33;56.26;95267.81;5050189;28;20702;-72
2021/09/01 04:23:10;;;;;;;7.97;4.73;;;;;;;17.30;56.07;95281.63;5034093;28;20837;-69
2021/09/01 04:25:37;;;;;;;6.33;5.03;;;;;;;17.32;56.01;95266.25;5038176;28;20445;-71
2021/09/01 04:28:04;;;;;;;8.93;4.90;;;;;;;17.11;56.13;95271.84;5050249;28;20447;-70
2021/09/01 04:30:31;;;;;;;15.10;6.17;;;;;;;16.62;57.99;95268.78;5049715;28;20482;-72
2021/09/01 04:32:58;;;;;;;11.70;5.70;;;;;;;16.50;58.47;95284.25;5050280;28;20445;-70
2021/09/01 04:35:25;;;;;;;7.63;5.77;;;;;;;16.59;58.60;95290.50;5049952;28;20448;-71
2021/09/01 04:37:52;;;;;;;9.90;5.67;;;;;;;16.76;58.12;95288.19;5050280;28;20470;-71
2021/09/01 04:40:19;;;;;;;15.03;5.70;;;;;;;16.99;58.03;95290.00;5049888;28;20442;-72
2021/09/01 04:42:46;;;;;;;13.00;6.27;;;;;;;16.87;59.26;95287.00;5040321;28;20570;-70
2021/09/01 04:45:13;;;;;;;10.03;6.60;;;;;;;16.93;60.29;95285.06;5043722;28;20451;-71
2021/09/01 04:47:40;;;;;;;11.90;6.83;;;;;;;16.81;60.77;95264.31;5030115;28;20480;-70
2021/09/01 04:50:07;;;;;;;14.87;6.80;;;;;;;16.86;60.02;95295.22;5032027;28;20442;-71
2021/09/01 04:52:35;;;;;;;15.57;6.50;;;;;;;16.84;59.50;95298.13;5047864;28;20485;-70
2021/09/01 04:55:04;;;;;;;15.73;6.73;;;;;;;16.98;60.09;95291.09;5050133;28;20821;-71
2021/09/01 04:57:32;;;;;;;12.07;6.67;;;;;;;17.04;59.83;95292.56;5035070;28;20483;-71
2021/09/01 04:59:59;;;;;;;11.67;6.17;;;;;;;17.12;59.60;95281.34;5049763;28;20435;-72
2021/09/01 05:02:26;;;;;;;11.23;7.10;;;;;;;17.18;59.81;95282.84;5033951;28;20444;-70
2021/09/01 05:04:53;;;;;;;15.63;6.37;;;;;;;17.37;59.22;95284.72;5029736;28;20824;-71
2021/09/01 05:07:20;;;;;;;19.43;6.60;;;;;;;17.38;58.67;95281.75;5029379;28;20440;-73
2021/09/01 05:09:47;;;;;;;15.60;7.07;;;;;;;17.46;59.34;95293.56;5035658;28;20446;-71
2021/09/01 05:12:13;;;;;;;19.37;6.23;;;;;;;17.55;59.01;95291.88;5037428;28;20482;-70
2021/09/01 05:14:42;;;;;;;13.67;6.40;;;;;;;17.56;59.37;95298.72;5047331;28;20817;-69
2021/09/01 05:17:09;;;;;;;13.10;6.23;;;;;;;17.62;58.03;95289.63;5049469;28;20853;-72
2021/09/01 05:19:36;;;;;;;10.40;5.77;;;;;;;17.65;58.16;95283.75;5049263;28;20447;-70
2021/09/01 05:22:05;;;;;;;11.03;5.77;;;;;;;17.91;56.96;95285.72;5049692;28;20450;-71
2021/09/01 05:24:57;;;;;;;8.87;5.60;;;;;;;17.96;56.78;95284.81;5049797;28;20439;-69
2021/09/01 05:27:27;;;;;;;7.20;5.07;;;;;;;18.07;56.37;95281.72;5037718;28;20477;-70
2021/09/01 05:29:54;;;;;;;6.60;5.10;;;;;;;18.19;54.84;95284.66;5035290;28;20443;-71
2021/09/01 05:32:23;;;;;;;8.07;5.20;;;;;;;18.40;55.09;95290.38;5049100;28;20841;-70
2021/09/01 05:34:54;;;;;;;7.27;5.10;;;;;;;18.48;54.60;95275.69;5036369;28;20451;-71
2021/09/01 05:37:22;;;;;;;7.50;5.37;;;;;;;18.63;54.23;95278.81;5036453;28;20532;-71
2021/09/01 05:39:51;;;;;;;11.03;5.77;;;;;;;18.70;55.30;95297.00;5036784;28;20196;-71
2021/09/01 05:42:21;;;;;;;19.23;6.87;;;;;;;18.77;54.86;95292.88;5047745;28;20476;-73
2021/09/01 05:44:50;;;;;;;12.73;6.73;;;;;;;18.89;55.38;95287.84;5049247;28;20238;-70
2021/09/01 05:47:19;;;;;;;9.27;5.33;;;;;;;18.79;53.52;95287.28;5049274;28;20206;-70
2021/09/01 05:49:52;;;;;;;19.40;12.97;;;;;;;18.72;53.04;95289.53;5039355;28;20521;-71
2021/09/01 05:52:20;;;;;;;7.03;5.20;;;;;;;18.88;53.08;95283.63;5030765;28;20200;-71
2021/09/01 05:54:52;;;;;;;7.37;5.43;;;;;;;18.85;52.80;95284.19;5049368;28;20754;-71
2021/09/01 05:57:39;;;;;;;16.70;11.87;;;;;;;19.26;52.45;95285.97;5048956;28;20643;-71
2021/09/01 06:00:15;;;;;;;13.67;11.50;;;;;;;19.41;51.91;95280.38;5049357;28;20192;-71
2021/09/01 06:03:07;;;;;;;28.57;23.63;;;;;;;19.48;52.07;95291.34;5050116;28;20685;-70
2021/09/01 06:05:37;;;;;;;6.73;4.10;;;;;;;19.40;50.15;95286.75;5038098;28;20197;-71
2021/09/01 06:08:07;;;;;;;7.73;4.00;;;;;;;19.45;50.18;95276.03;5032191;28;20201;-71
2021/09/01 06:10:37;;;;;;;5.87;3.97;;;;;;;19.46;50.47;95277.59;5043457;28;20254;-69
2021/09/01 06:13:07;;;;;;;6.37;3.40;;;;;;;19.28;49.00;95270.53;5050440;28;20197;-70
2021/09/01 06:15:36;;;;;;;5.77;3.47;;;;;;;19.33;49.51;95278.41;5050330;28;20216;-70
2021/09/01 06:18:04;;;;;;;10.23;3.50;;;;;;;19.57;49.57;95279.72;5030804;28;20312;-71
2021/09/01 06:20:33;;;;;;;4.90;3.30;;;;;;;19.38;49.48;95283.63;5036920;28;20208;-70
2021/09/01 06:23:01;;;;;;;3.77;3.10;;;;;;;19.57;48.85;95284.22;5048742;28;20279;-72
2021/09/01 06:25:28;;;;;;;8.53;3.23;;;;;;;19.65;49.01;95280.88;5036391;28;20722;-71
2021/09/01 06:27:55;;;;;;;3.83;3.43;;;;;;;19.82;48.48;95278.31;5040361;28;20201;-72
2021/09/01 06:30:23;;;;;;;4.37;3.03;;;;;;;19.91;47.57;95277.28;5038103;28;20223;-71
2021/09/01 06:32:51;;;;;;;4.63;2.70;;;;;;;20.01;46.79;95278.91;5052976;28;20204;-70
2021/09/01 06:35:18;;;;;;;4.00;2.70;;;;;;;20.01;46.48;95278.91;5034524;28;20221;-70
2021/09/01 06:37:45;;;;;;;7.10;3.00;;;;;;;20.02;46.32;95265.28;5042858;28;20629;-72
2021/09/01 06:40:16;;;;;;;7.10;3.10;;;;;;;20.10;45.68;95287.72;5050478;28;20250;-69
2021/09/01 06:42:43;;;;;;;3.77;2.47;;;;;;;19.87;45.29;95272.88;5032564;28;20636;-74
2021/09/01 06:45:11;;;;;;;3.10;2.80;;;;;;;20.01;45.88;95279.69;5047514;28;20551;-71
2021/09/01 06:47:44;;;;;;;5.67;2.83;;;;;;;19.94;45.15;95279.31;5052446;28;20246;-71
2021/09/01 06:50:14;;;;;;;11.57;3.10;;;;;;;19.89;44.94;95291.97;5039476;28;20308;-69
2021/09/01 06:52:42;;;;;;;5.87;3.67;;;;;;;19.99;45.85;95279.22;5036919;28;20209;-71
2021/09/01 06:55:10;;;;;;;5.63;3.03;;;;;;;20.39;45.19;95289.91;5040977;28;20203;-71
2021/09/01 06:57:37;;;;;;;6.30;2.63;;;;;;;20.01;45.15;95284.22;5035622;28;20220;-74
2021/09/01 07:00:06;;;;;;;10.03;2.20;;;;;;;20.16;45.17;95289.91;5052681;28;20568;-72
2021/09/01 07:02:33;;;;;;;3.13;2.50;;;;;;;20.41;45.18;95287.72;5051300;28;20344;-73
2021/09/01 07:05:01;;;;;;;3.47;2.60;;;;;;;20.46;44.81;95301.69;5052029;28;20192;-72
2021/09/01 07:07:29;;;;;;;5.63;2.57;;;;;;;20.92;44.88;95290.56;5051808;28;20197;-75
2021/09/01 07:09:56;;;;;;;6.03;2.90;;;;;;;20.96;44.58;95292.31;5052334;28;20184;-71
2021/09/01 07:12:23;;;;;;;6.63;2.73;;;;;;;20.83;44.30;95287.88;5051639;28;20254;-71
2021/09/01 07:14:50;;;;;;;4.20;2.50;;;;;;;20.73;44.39;95290.81;5051925;28;20200;-73
2021/09/01 07:17:17;;;;;;;3.77;2.40;;;;;;;20.57;44.73;95292.34;5042024;28;20236;-71
2021/09/01 07:19:44;;;;;;;2.63;2.10;;;;;;;20.30;44.03;95292.53;5045880;28;20594;-70
2021/09/01 07:22:11;;;;;;;2.87;2.20;;;;;;;20.52;44.13;95289.81;5038879;28;20202;-70
2021/09/01 07:24:38;;;;;;;4.20;2.70;;;;;;;20.75;44.38;95288.63;5051661;28;20275;-71
2021/09/01 07:27:05;;;;;;;3.67;2.33;;;;;;;20.73;44.06;95308.69;5037395;28;20192;-68
2021/09/01 07:29:33;;;;;;;4.07;2.10;;;;;;;20.79;43.97;95296.78;5051625;28;20192;-73
2021/09/01 07:32:00;;;;;;;11.07;2.40;;;;;;;20.99;43.56;95299.69;5051128;28;20556;-72
2021/09/01 07:34:26;;;;;;;2.60;2.27;;;;;;;21.00;44.19;95284.50;5051942;28;20223;-72
2021/09/01 07:36:53;;;;;;;4.57;2.07;;;;;;;20.56;44.02;95290.78;5050008;28;20208;-73
2021/09/01 07:39:20;;;;;;;5.90;2.30;;;;;;;20.49;44.99;95298.41;5043076;28;20189;-73
2021/09/01 07:41:47;;;;;;;4.43;2.20;;;;;;;20.48;45.04;95291.53;5046046;28;20240;-69
2021/09/01 07:44:14;;;;;;;2.63;2.20;;;;;;;20.46;44.72;95291.03;5044340;28;20204;-73
2021/09/01 07:46:41;;;;;;;4.60;2.50;;;;;;;20.79;44.33;95300.25;5030968;28;20203;-74
2021/09/01 07:49:08;;;;;;;3.10;2.20;;;;;;;20.81;43.80;95287.41;5046492;28;20192;-72
2021/09/01 07:51:36;;;;;;;4.27;2.30;;;;;;;20.70;44.00;95288.78;5033390;28;20265;-72
2021/09/01 07:54:18;;;;;;;3.63;2.33;;;;;;;20.69;43.53;95300.50;5033532;28;20205;-71
2021/09/01 07:56:45;;;;;;;6.57;2.30;;;;;;;20.54;43.83;95300.94;5033771;28;20205;-71
2021/09/01 07:59:12;;;;;;;5.10;2.70;;;;;;;20.91;43.79;95297.00;5048263;28;20223;-70
2021/09/01 08:01:39;;;;;;;4.40;2.20;;;;;;;20.83;43.88;95295.88;5041728;28;20308;-72
2021/09/01 08:04:06;;;;;;;3.43;2.10;;;;;;;20.81;44.42;95291.94;5031359;28;20201;-73
2021/09/01 08:06:33;;;;;;;4.73;2.57;;;;;;;20.55;44.93;95305.16;5038369;28;20208;-72
2021/09/01 08:09:00;;;;;;;9.43;2.60;;;;;;;20.90;44.50;95296.19;5037647;28;20201;-75
2021/09/01 08:11:27;;;;;;;3.97;2.70;;;;;;;21.32;45.83;95301.94;5050431;28;20204;-72
2021/09/01 08:13:54;;;;;;;3.10;2.10;;;;;;;21.64;44.26;95288.16;5039132;28;20197;-71
2021/09/01 08:16:22;;;;;;;4.50;2.67;;;;;;;21.51;44.36;95299.75;5044656;28;20584;-74
2021/09/01 08:18:49;;;;;;;5.17;2.30;;;;;;;21.26;44.01;95287.19;5031242;28;20227;-74
2021/09/01 08:21:15;;;;;;;4.30;2.53;;;;;;;21.84;43.63;95292.88;5044243;28;20207;-73
2021/09/01 08:23:42;;;;;;;5.47;2.60;;;;;;;21.79;43.04;95290.34;5037332;28;20199;-73
2021/09/01 08:26:09;;;;;;;3.40;1.70;;;;;;;21.81;41.16;95288.94;5050577;28;20203;-77
2021/09/01 08:28:36;;;;;;;2.10;1.57;;;;;;;21.96;40.56;95290.31;5037191;28;20193;-73
2021/09/01 08:31:03;;;;;;;5.57;1.77;;;;;;;22.07;40.24;95280.88;5052120;28;20231;-69
2021/09/01 08:33:30;;;;;;;5.80;1.80;;;;;;;22.35;41.07;95282.06;5038820;28;20274;-70
2021/09/01 08:35:57;;;;;;;8.23;2.20;;;;;;;22.62;41.59;95278.22;5052383;28;20195;-75
2021/09/01 08:38:24;;;;;;;4.07;1.83;;;;;;;22.44;40.54;95274.81;5052124;28;20219;-72
2021/09/01 08:40:51;;;;;;;3.63;2.07;;;;;;;22.40;40.54;95286.44;5050953;28;20184;-75
2021/09/01 08:43:19;;;;;;;6.77;2.20;;;;;;;22.56;39.93;95266.91;5036985;28;20231;-70
2021/09/01 08:45:47;;;;;;;5.53;2.10;;;;;;;22.52;39.98;95271.31;5036019;28;20231;-72
2021/09/01 08:48:16;;;;;;;2.77;2.00;;;;;;;22.46;39.93;95267.25;5037842;28;20667;-77
2021/09/01 08:50:44;;;;;;;4.13;2.00;;;;;;;22.36;39.70;95275.63;5032263;28;20659;-71
2021/09/01 08:53:12;;;;;;;2.83;1.93;;;;;;;22.37;39.66;95263.81;5050418;28;20185;-76
2021/09/01 08:55:39;;;;;;;4.77;1.87;;;;;;;22.50;40.16;95257.47;5049541;28;20945;-71
2021/09/01 08:58:06;;;;;;;4.87;2.20;;;;;;;22.75;39.98;95251.28;5050193;28;20687;-71
2021/09/01 09:00:33;;;;;;;6.37;2.40;;;;;;;22.80;38.80;95261.78;5049608;28;20198;-75
2021/09/01 09:03:01;;;;;;;5.67;1.73;;;;;;;22.71;38.10;95253.03;5036647;28;20181;-70
2021/09/01 09:05:36;;;;;;;2.17;1.40;;;;;;;22.63;38.72;95239.69;5037756;28;20224;-69
2021/09/01 09:08:06;;;;;;;5.03;1.80;;;;;;;22.97;39.00;95247.53;5049996;28;20605;-71
2021/09/01 09:10:36;;;;;;;3.50;2.20;;;;;;;23.21;38.91;95242.31;5049994;28;20211;-74
2021/09/01 09:13:08;;;;;;;1.70;1.50;;;;;;;23.28;38.00;95241.81;5050220;28;20573;-71
2021/09/01 09:15:37;;;;;;;3.90;2.00;;;;;;;23.39;38.66;95245.69;5038027;28;20201;-72
2021/09/01 09:18:26;;;;;;;2.83;2.33;;;;;;;23.31;36.14;95243.84;5047866;28;20295;-73
2021/09/01 09:21:16;;;;;;;3.60;1.90;;;;;;;23.36;38.02;95257.00;5050122;28;20677;-71
2021/09/01 09:23:44;;;;;;;3.20;1.63;;;;;;;22.91;37.50;95236.25;5050973;28;20634;-71
2021/09/01 09:26:32;;;;;;;6.07;2.30;;;;;;;23.27;37.85;95245.56;5037394;28;20675;-71
2021/09/01 09:29:08;;;;;;;2.57;1.70;;;;;;;23.34;37.25;95240.53;5037820;28;20200;-73
2021/09/01 09:31:35;;;;;;;2.87;2.00;;;;;;;23.23;36.73;95232.06;5034453;28;20196;-71
2021/09/01 09:34:07;;;;;;;2.20;2.00;;;;;;;23.41;37.34;95227.41;5037409;28;20189;-72
2021/09/01 09:36:35;;;;;;;2.93;1.93;;;;;;;23.85;38.69;95229.34;5035270;28;20224;-71
2021/09/01 09:39:04;;;;;;;7.37;2.00;;;;;;;23.52;36.98;95233.94;5049965;28;20601;-74
2021/09/01 09:41:31;;;;;;;4.43;2.20;;;;;;;24.07;37.15;95235.13;5049338;28;20690;-69
2021/09/01 09:44:03;;;;;;;4.90;2.27;;;;;;;23.99;36.62;95235.19;5050217;28;20572;-74
2021/09/01 09:46:44;;;;;;;2.10;1.90;;;;;;;23.93;36.48;95231.16;5049616;28;20215;-72
2021/09/01 09:49:11;;;;;;;1.80;1.70;;;;;;;24.22;36.67;95225.66;5044986;28;20205;-75
2021/09/01 09:51:42;;;;;;;3.27;1.90;;;;;;;24.25;36.45;95235.69;5029812;28;20212;-71
2021/09/01 09:54:17;;;;;;;2.83;1.77;;;;;;;23.92;35.23;95226.94;5044866;28;20209;-72
2021/09/01 09:56:46;;;;;;;4.07;2.27;;;;;;;24.00;35.53;95234.88;5040648;28;20298;-73
2021/09/01 09:59:18;;;;;;;3.73;1.90;;;;;;;24.21;36.29;95224.13;5049615;28;20235;-71
2021/09/01 10:01:46;;;;;;;7.20;2.10;;;;;;;24.31;36.49;95233.59;5042913;28;20665;-76
2021/09/01 10:04:14;;;;;;;2.93;2.47;;;;;;;24.09;35.31;95224.06;5035510;28;20197;-76
2021/09/01 10:06:41;;;;;;;2.87;1.90;;;;;;;24.39;35.04;95227.34;5044230;28;20197;-72
2021/09/01 10:09:09;;;;;;;4.03;2.27;;;;;;;24.37;37.03;95227.69;5048257;28;20210;-72
2021/09/01 10:11:44;;;;;;;5.93;2.30;;;;;;;24.14;34.95;95218.53;5052896;28;20193;-74
2021/09/01 10:14:16;;;;;;;9.10;2.20;;;;;;;24.13;34.97;95219.63;5039109;28;20201;-73
2021/09/01 10:16:57;;;;;;;2.60;1.90;;;;;;;23.84;35.71;95219.75;5045685;28;20288;-71
2021/09/01 10:19:27;;;;;;;2.30;2.10;;;;;;;23.69;36.15;95217.69;5046194;28;20311;-70
2021/09/01 10:22:01;;;;;;;6.87;2.13;;;;;;;23.45;35.42;95214.97;5038805;28;20196;-71
2021/09/01 10:24:32;;;;;;;2.50;2.30;;;;;;;23.27;36.59;95227.63;5052944;28;20191;-69
2021/09/01 10:27:03;;;;;;;6.90;2.57;;;;;;;23.75;37.58;95219.06;5052084;28;20196;-72
2021/09/01 10:29:47;;;;;;;4.23;2.50;;;;;;;23.71;36.08;95232.31;5052979;28;20200;-70
2021/09/01 10:32:30;;;;;;;3.33;2.10;;;;;;;23.84;36.47;95223.22;5052346;28;20798;-70
2021/09/01 10:35:12;;;;;;;4.37;2.20;;;;;;;23.47;36.21;95226.09;5052679;28;20205;-70
2021/09/01 10:37:43;;;;;;;6.00;2.33;;;;;;;23.34;35.23;95237.84;5052000;28;20277;-70
2021/09/01 10:40:21;;;;;;;3.70;1.80;;;;;;;23.09;35.66;95228.88;5037265;28;20288;-69
2021/09/01 10:42:59;;;;;;;10.93;3.00;;;;;;;23.43;36.08;95225.19;5041837;28;20297;-70
2021/09/01 10:45:32;;;;;;;5.30;2.00;;;;;;;23.77;36.26;95219.53;5052138;28;20204;-74
2021/09/01 10:47:59;;;;;;;4.73;2.27;;;;;;;23.80;35.16;95225.00;5052582;28;20208;-70
2021/09/01 10:50:30;;;;;;;4.83;2.00;;;;;;;23.57;35.28;95225.69;5037537;28;20579;-72
2021/09/01 10:53:25;;;;;;;1.97;1.60;;;;;;;23.97;34.78;95229.38;5032824;28;20232;-70
2021/09/01 10:56:05;;;;;;;4.73;2.43;;;;;;;24.09;35.63;95237.47;5049711;28;20203;-72
2021/09/01 10:58:33;;;;;;;4.77;2.10;;;;;;;24.36;35.02;95234.16;5052762;28;20228;-76
2021/09/01 11:01:19;;;;;;;2.13;1.70;;;;;;;24.61;35.15;95233.06;5052878;28;20210;-71
2021/09/01 11:04:02;;;;;;;4.23;2.20;;;;;;;24.87;34.60;95241.56;5060311;28;20204;-71
2021/09/01 11:06:34;;;;;;;3.07;1.80;;;;;;;24.70;33.61;95235.63;5061243;28;20196;-70
2021/09/01 11:09:11;;;;;;;2.67;1.80;;;;;;;24.85;33.37;95243.03;5044291;28;20625;-68
2021/09/01 11:11:52;;;;;;;1.80;1.70;;;;;;;24.74;33.56;95248.03;5040491;28;20208;-70
2021/09/01 11:14:33;;;;;;;2.00;1.80;;;;;;;24.18;33.58;95250.78;5038180;28;20201;-72
2021/09/01 11:17:01;;;;;;;5.73;1.80;;;;;;;24.72;33.85;95239.56;5040195;28;20268;-71
2021/09/01 11:19:28;;;;;;;8.03;2.40;;;;;;;25.18;32.56;95246.34;5049134;28;20710;-69
2021/09/01 11:21:55;;;;;;;1.97;1.70;;;;;;;24.75;31.80;95246.94;5052795;28;20207;-71
2021/09/01 11:24:23;;;;;;;1.83;1.50;;;;;;;24.87;31.52;95230.06;5052234;28;20193;-73
2021/09/01 11:26:54;;;;;;;3.27;1.40;;;;;;;24.83;30.35;95223.81;5051586;28;20697;-73
2021/09/01 11:29:34;;;;;;;2.17;1.50;;;;;;;24.77;31.19;95238.56;5051986;28;20212;-72
2021/09/01 11:32:02;;;;;;;1.77;1.53;;;;;;;25.01;31.38;95249.25;5051473;28;20279;-73
2021/09/01 11:34:29;;;;;;;2.63;1.90;;;;;;;25.19;32.65;95239.03;5051463;28;20671;-69
2021/09/01 11:36:56;;;;;;;6.00;2.30;;;;;;;25.17;32.15;95243.97;5051229;28;20196;-71
2021/09/01 11:39:23;;;;;;;2.77;2.10;;;;;;;24.84;32.82;95247.59;5051578;28;20208;-69
2021/09/01 11:41:58;;;;;;;3.03;2.40;;;;;;;24.88;32.82;95236.97;5050666;28;20600;-72